createdAt,value
2019-05-07T00:01:42.309Z,101148.38
2019-05-07T00:04:12.889Z,101153.22
2019-05-07T00:06:43.441Z,101150.58
2019-05-07T00:09:13.905Z,101146.61
2019-05-07T00:11:42.965Z,101143.09
2019-05-07T00:14:12.625Z,101149.23
2019-05-07T00:16:42.433Z,101151.02
2019-05-07T00:19:12.872Z,101150.11
2019-05-07T00:21:42.428Z,101145.27
2019-05-07T00:24:13.155Z,101149.67
2019-05-07T00:26:43.168Z,101145.70
2019-05-07T00:29:12.968Z,101144.83
2019-05-07T00:31:42.265Z,101143.06
2019-05-07T00:34:12.617Z,101145.70
2019-05-07T00:36:49.776Z,101148.77
2019-05-07T00:39:30.001Z,101146.09
2019-05-07T00:42:07.474Z,101144.30
2019-05-07T00:44:56.007Z,101140.30
2019-05-07T00:47:25.076Z,101142.06
2019-05-07T00:49:55.161Z,101151.77
2019-05-07T00:52:24.221Z,101141.59
2019-05-07T00:54:53.357Z,101146.88
2019-05-07T00:57:22.954Z,101143.77
2019-05-07T00:59:52.562Z,101151.17
2019-05-07T01:02:23.138Z,101145.86
2019-05-07T01:04:53.179Z,101147.56
2019-05-07T01:07:23.025Z,101141.75
2019-05-07T01:09:52.552Z,101142.98
2019-05-07T01:12:22.325Z,101140.28
2019-05-07T01:14:52.802Z,101146.32
2019-05-07T01:17:22.836Z,101142.73
2019-05-07T01:19:53.232Z,101138.70
2019-05-07T01:22:22.477Z,101142.23
2019-05-07T01:24:52.570Z,101141.76
2019-05-07T01:27:22.590Z,101144.84
2019-05-07T01:29:52.860Z,101143.90
2019-05-07T01:32:33.009Z,101142.11
2019-05-07T01:35:07.463Z,101138.08
2019-05-07T01:37:36.579Z,101137.17
2019-05-07T01:40:05.648Z,101134.50
2019-05-07T01:42:36.618Z,101130.12
2019-05-07T01:45:06.686Z,101132.33
2019-05-07T01:47:35.768Z,101132.30
2019-05-07T01:50:04.944Z,101131.41
2019-05-07T01:52:34.030Z,101133.14
2019-05-07T01:55:03.410Z,101137.14
2019-05-07T01:57:32.841Z,101140.66
2019-05-07T02:00:02.561Z,101131.38
2019-05-07T02:02:42.562Z,101137.14
2019-05-07T02:05:33.769Z,101128.34
2019-05-07T02:08:06.698Z,101128.34
2019-05-07T02:10:49.038Z,101128.34
2019-05-07T02:13:18.095Z,101126.58
2019-05-07T02:16:00.215Z,101127.02
2019-05-07T02:18:17.972Z,101133.62
2019-05-07T02:20:47.029Z,101136.26
2019-05-07T02:23:16.111Z,101132.30
2019-05-07T02:25:45.190Z,101132.27
2019-05-07T02:28:14.272Z,101136.22
2019-05-07T02:30:44.349Z,101137.52
2019-05-07T02:33:14.096Z,101143.20
2019-05-07T02:35:43.938Z,101140.09
2019-05-07T02:38:23.026Z,101145.37
2019-05-07T02:41:02.718Z,101136.09
2019-05-07T02:43:33.451Z,101146.19
2019-05-07T02:46:30.009Z,101143.52
2019-05-07T02:49:10.248Z,101151.00
2019-05-07T02:51:45.284Z,101150.05
2019-05-07T02:54:24.245Z,101144.73
2019-05-07T02:56:53.478Z,101146.02
2019-05-07T02:59:23.507Z,101150.39
2019-05-07T03:01:53.666Z,101148.63
2019-05-07T03:04:25.099Z,101155.19
2019-05-07T03:06:54.479Z,101150.76
2019-05-07T03:09:23.708Z,101156.48
2019-05-07T03:11:53.250Z,101149.81
2019-05-07T03:14:23.311Z,101151.98
2019-05-07T03:16:53.537Z,101156.31
2019-05-07T03:19:24.266Z,101153.67
2019-05-07T03:21:54.350Z,101153.16
2019-05-07T03:24:46.925Z,101157.05
2019-05-07T03:27:16.040Z,101158.30
2019-05-07T03:29:53.516Z,101160.90
2019-05-07T03:32:36.700Z,101164.86
2019-05-07T03:35:27.297Z,101165.27
2019-05-07T03:37:55.190Z,101162.19
2019-05-07T03:40:24.254Z,101170.06
2019-05-07T03:42:53.677Z,101163.88
2019-05-07T03:45:38.768Z,101170.47
2019-05-07T03:48:18.715Z,101169.15
2019-05-07T03:50:47.781Z,101173.98
2019-05-07T03:53:16.864Z,101171.28
2019-05-07T03:55:45.942Z,101175.23
2019-05-07T03:58:15.116Z,101175.67
2019-05-07T04:00:44.822Z,101180.98
2019-05-07T04:03:18.768Z,101176.99
2019-05-07T04:05:44.720Z,101178.72
2019-05-07T04:08:13.813Z,101188.83
2019-05-07T04:10:44.381Z,101184.39
2019-05-07T04:13:13.891Z,101187.00
2019-05-07T04:15:44.095Z,101189.60
2019-05-07T04:18:13.623Z,101181.20
2019-05-07T04:20:43.772Z,101191.72
2019-05-07T04:23:13.935Z,101193.08
2019-05-07T04:25:53.038Z,101187.77
2019-05-07T04:28:27.630Z,101197.00
2019-05-07T04:30:57.575Z,101193.48
2019-05-07T04:33:33.085Z,101197.47
2019-05-07T04:36:07.576Z,101202.31
2019-05-07T04:38:36.583Z,101202.75
2019-05-07T04:41:05.665Z,101201.47
2019-05-07T04:43:34.745Z,101204.52
2019-05-07T04:46:03.902Z,101199.71
2019-05-07T04:48:34.155Z,101204.98
2019-05-07T04:51:05.077Z,101210.70
2019-05-07T04:53:34.149Z,101208.51
2019-05-07T04:56:03.558Z,101206.34
2019-05-07T04:58:33.807Z,101209.87
2019-05-07T05:01:04.623Z,101213.83
2019-05-07T05:03:35.569Z,101213.78
2019-05-07T05:06:04.467Z,101221.70
2019-05-07T05:08:33.528Z,101221.66
2019-05-07T05:11:03.575Z,101224.27
2019-05-07T05:13:33.312Z,101221.14
2019-05-07T05:16:22.459Z,101224.14
2019-05-07T05:18:51.806Z,101224.55
2019-05-07T05:21:52.840Z,101222.27
2019-05-07T05:24:32.772Z,101229.30
2019-05-07T05:27:02.587Z,101229.27
2019-05-07T05:29:32.833Z,101231.91
2019-05-07T05:32:02.383Z,101228.34
2019-05-07T05:34:32.920Z,101228.34
2019-05-07T05:37:02.543Z,101233.19
2019-05-07T05:39:32.091Z,101235.91
2019-05-07T05:42:12.228Z,101238.58
2019-05-07T05:44:41.782Z,101236.42
2019-05-07T05:47:11.952Z,101240.41
2019-05-07T05:49:42.876Z,101247.97
2019-05-07T05:52:19.259Z,101244.97
2019-05-07T05:55:12.029Z,101247.20
2019-05-07T05:58:02.689Z,101247.28
2019-05-07T06:01:03.277Z,101243.80
2019-05-07T06:03:44.318Z,101243.84
2019-05-07T06:06:35.747Z,101241.24
2019-05-07T06:09:44.093Z,101244.36
2019-05-07T06:12:22.594Z,101250.55
2019-05-07T06:15:16.567Z,101249.23
2019-05-07T06:18:17.912Z,101250.63
2019-05-07T06:21:00.408Z,101244.98
2019-05-07T06:23:37.644Z,101255.62
2019-05-07T06:26:06.738Z,101258.74
2019-05-07T06:28:35.807Z,101253.50
2019-05-07T06:31:04.886Z,101258.78
2019-05-07T06:33:33.937Z,101254.34
2019-05-07T06:36:03.047Z,101253.53
2019-05-07T06:38:36.372Z,101256.21
2019-05-07T06:41:25.357Z,101262.89
2019-05-07T06:44:03.903Z,101267.40
2019-05-07T06:46:32.984Z,101267.87
2019-05-07T06:49:02.258Z,101272.39
2019-05-07T06:51:32.875Z,101270.70
2019-05-07T06:54:02.812Z,101269.41
2019-05-07T06:56:32.611Z,101270.81
2019-05-07T06:59:13.044Z,101269.96
2019-05-07T07:01:59.371Z,101265.60
2019-05-07T07:04:39.662Z,101274.98
2019-05-07T07:07:27.320Z,101271.06
2019-05-07T07:09:59.072Z,101269.37
2019-05-07T07:12:29.299Z,101275.13
2019-05-07T07:14:58.353Z,101271.67
2019-05-07T07:17:27.427Z,101265.95
2019-05-07T07:19:56.481Z,101262.97
2019-05-07T07:22:25.563Z,101263.88
2019-05-07T07:24:54.650Z,101252.12
2019-05-07T07:27:23.715Z,101257.92
2019-05-07T07:30:12.772Z,101260.22
2019-05-07T07:32:43.173Z,101259.91
2019-05-07T07:35:13.931Z,101258.27
2019-05-07T07:37:43.150Z,101242.98
2019-05-07T07:40:48.607Z,101251.54
2019-05-07T07:43:17.687Z,101253.02
2019-05-07T07:45:46.737Z,101251.45
2019-05-07T07:48:15.813Z,101252.05
2019-05-07T07:50:44.871Z,101254.36
2019-05-07T07:53:13.956Z,101259.78
2019-05-07T07:56:02.593Z,101255.93
2019-05-07T07:58:52.429Z,101259.53
2019-05-07T08:01:28.779Z,101260.52
2019-05-07T08:03:57.840Z,101257.93
2019-05-07T08:06:29.331Z,101253.52
2019-05-07T08:08:58.429Z,101257.05
2019-05-07T08:11:27.503Z,101247.31
2019-05-07T08:13:56.569Z,101253.49
2019-05-07T08:16:25.623Z,101245.94
2019-05-07T08:18:54.806Z,101240.13
2019-05-07T08:21:23.871Z,101246.30
2019-05-07T08:23:53.020Z,101239.79
2019-05-07T08:26:22.072Z,101244.41
2019-05-07T08:28:52.376Z,101242.89
2019-05-07T08:31:32.031Z,101236.95
2019-05-07T08:34:14.244Z,101249.05
2019-05-07T08:36:43.390Z,101248.62
2019-05-07T08:39:13.053Z,101248.19
2019-05-07T08:41:42.417Z,101245.47
2019-05-07T08:44:16.090Z,101242.34
2019-05-07T08:47:16.580Z,101244.61
2019-05-07T08:49:45.642Z,101230.16
2019-05-07T08:52:14.702Z,101228.98
2019-05-07T08:54:43.767Z,101231.34
2019-05-07T08:57:12.928Z,101231.38
2019-05-07T08:59:46.738Z,101231.84
2019-05-07T09:02:12.864Z,101232.70
2019-05-07T09:04:42.002Z,101232.27
2019-05-07T09:07:13.057Z,101227.95
2019-05-07T09:09:42.686Z,101226.74
2019-05-07T09:12:12.515Z,101229.02
2019-05-07T09:14:42.637Z,101232.18
2019-05-07T09:17:12.728Z,101226.48
2019-05-07T09:19:50.692Z,101230.55
2019-05-07T09:22:12.979Z,101230.66
2019-05-07T09:24:42.597Z,101227.66
2019-05-07T09:27:22.156Z,101220.60
2019-05-07T09:30:28.404Z,101229.47
2019-05-07T09:36:24.661Z,101218.58
2019-05-07T09:38:59.359Z,101223.58
2019-05-07T09:41:27.821Z,101206.81
2019-05-07T09:43:59.808Z,101214.84
2019-05-07T09:46:28.870Z,101209.14
2019-05-07T09:48:57.940Z,101211.80
2019-05-07T09:51:27.002Z,101209.55
2019-05-07T09:53:56.077Z,101214.42
2019-05-07T09:56:25.127Z,101216.19
2019-05-07T09:58:54.218Z,101210.87
2019-05-07T10:01:23.647Z,101211.77
2019-05-07T10:03:52.977Z,101207.78
2019-05-07T10:06:22.925Z,101205.55
2019-05-07T10:08:52.429Z,101205.98
2019-05-07T10:11:34.346Z,101204.64
2019-05-07T10:14:07.424Z,101200.69
2019-05-07T10:16:45.968Z,101202.08
2019-05-07T10:19:15.045Z,101200.81
2019-05-07T10:21:44.212Z,101188.91
2019-05-07T10:24:13.302Z,101188.02
2019-05-07T10:26:42.878Z,101194.19
2019-05-07T10:29:12.602Z,101191.56
2019-05-07T10:31:42.417Z,101192.92
2019-05-07T10:34:12.312Z,101195.16
2019-05-07T10:36:42.175Z,101188.98
2019-05-07T10:39:12.904Z,101189.86
2019-05-07T10:41:42.543Z,101188.11
2019-05-07T10:44:12.754Z,101187.25
2019-05-07T10:47:01.994Z,101191.67
2019-05-07T10:49:37.860Z,101183.66
2019-05-07T10:52:06.928Z,101180.51
2019-05-07T10:54:36.000Z,101174.22
2019-05-07T10:57:05.064Z,101168.36
2019-05-07T10:59:34.163Z,101165.61
2019-05-07T11:02:21.938Z,101171.31
2019-05-07T11:04:53.060Z,101166.84
2019-05-07T11:07:22.280Z,101167.67
2019-05-07T11:09:52.515Z,101165.88
2019-05-07T11:12:24.936Z,101162.28
2019-05-07T11:14:54.007Z,101159.20
2019-05-07T11:17:33.497Z,101161.48
2019-05-07T11:20:02.587Z,101160.17
2019-05-07T11:22:32.781Z,101161.42
2019-05-07T11:25:03.084Z,101154.29
2019-05-07T11:27:33.057Z,101151.05
2019-05-07T11:30:02.803Z,101146.80
2019-05-07T11:32:32.210Z,101144.77
2019-05-07T11:35:03.157Z,101148.27
2019-05-07T11:37:32.146Z,101144.23
2019-05-07T11:40:03.210Z,101144.95
2019-05-07T11:42:54.113Z,101147.48
2019-05-07T11:45:28.985Z,101141.11
2019-05-07T11:47:58.041Z,101130.30
2019-05-07T11:50:42.308Z,101127.62
2019-05-07T11:53:12.292Z,101118.63
2019-05-07T11:55:42.045Z,101130.55
2019-05-07T11:58:12.876Z,101129.70
2019-05-07T12:00:51.138Z,101122.28
2019-05-07T12:03:22.133Z,101118.70
2019-05-07T12:05:52.650Z,101115.62
2019-05-07T12:08:23.707Z,101111.55
2019-05-07T12:10:52.695Z,101121.72
2019-05-07T12:13:21.970Z,101116.66
2019-05-07T12:15:52.082Z,101104.20
2019-05-07T12:18:22.762Z,101101.99
2019-05-07T12:20:54.108Z,101102.43
2019-05-07T12:23:22.884Z,101102.94
2019-05-07T12:25:52.848Z,101109.89
2019-05-07T12:28:22.641Z,101105.89
2019-05-07T12:31:08.627Z,101096.45
2019-05-07T12:33:47.252Z,101096.34
2019-05-07T12:36:16.313Z,101089.27
2019-05-07T12:38:45.362Z,101091.28
2019-05-07T12:41:29.886Z,101091.49
2019-05-07T12:43:59.925Z,101093.03
2019-05-07T12:46:29.404Z,101087.61
2019-05-07T12:48:58.463Z,101089.08
2019-05-07T12:51:36.378Z,101083.45
2019-05-07T12:54:03.470Z,101083.98
2019-05-07T12:56:32.564Z,101082.80
2019-05-07T12:59:02.211Z,101078.42
2019-05-07T13:01:52.082Z,101074.37
2019-05-07T13:04:23.864Z,101076.13
2019-05-07T13:06:59.335Z,101079.12
2019-05-07T13:09:28.382Z,101072.19
2019-05-07T13:11:57.466Z,101074.94
2019-05-07T13:14:26.515Z,101067.58
2019-05-07T13:16:55.593Z,101064.48
2019-05-07T13:19:24.645Z,101063.84
2019-05-07T13:21:53.699Z,101063.02
2019-05-07T13:24:22.956Z,101065.33
2019-05-07T13:26:52.043Z,101058.28
2019-05-07T13:29:22.217Z,101061.45
2019-05-07T13:31:54.320Z,101055.56
2019-05-07T13:34:23.692Z,101054.22
2019-05-07T13:36:57.385Z,101050.03
2019-05-07T13:39:43.139Z,101045.12
2019-05-07T13:42:31.944Z,101040.34
2019-05-07T13:45:23.264Z,101045.53
2019-05-07T13:48:02.827Z,101039.64
2019-05-07T13:50:32.672Z,101048.17
2019-05-07T13:53:01.834Z,101040.30
2019-05-07T13:55:32.366Z,101040.70
2019-05-07T13:58:01.534Z,101030.27
2019-05-07T14:00:35.629Z,101031.34
2019-05-07T14:03:04.813Z,101021.34
2019-05-07T14:05:33.860Z,101024.57
2019-05-07T14:08:04.664Z,101028.60
2019-05-07T14:10:33.930Z,101021.34
2019-05-07T14:13:12.660Z,101020.00
2019-05-07T14:15:35.005Z,101016.41
2019-05-07T14:18:04.403Z,101016.64
2019-05-07T14:20:33.455Z,101012.17
2019-05-07T14:23:02.505Z,101010.76
2019-05-07T14:25:32.535Z,101009.77
2019-05-07T14:28:02.294Z,101006.17
2019-05-07T14:30:32.787Z,101000.48
2019-05-07T14:33:15.219Z,101003.75
2019-05-07T14:35:52.051Z,101006.55
2019-05-07T14:38:25.347Z,101003.28
2019-05-07T14:40:54.372Z,101007.66
2019-05-07T14:43:48.307Z,101008.50
2019-05-07T14:46:17.358Z,101001.39
2019-05-07T14:48:46.514Z,101001.86
2019-05-07T14:51:15.511Z,100998.81
2019-05-07T14:53:44.558Z,100999.25
2019-05-07T14:56:14.259Z,100993.52
2019-05-07T14:58:44.051Z,100997.70
2019-05-07T15:01:13.149Z,100992.59
2019-05-07T15:03:42.364Z,100990.56
2019-05-07T15:06:12.590Z,100992.63
2019-05-07T15:08:42.897Z,100991.16
2019-05-07T15:11:12.179Z,100991.07
2019-05-07T15:13:42.730Z,100990.03
2019-05-07T15:16:12.601Z,100990.30
2019-05-07T15:18:52.941Z,100996.31
2019-05-07T15:21:22.589Z,100991.14
2019-05-07T15:23:53.335Z,100991.80
2019-05-07T15:26:22.566Z,100988.87
2019-05-07T15:29:06.061Z,100988.99
2019-05-07T15:31:52.915Z,100983.57
2019-05-07T15:34:22.235Z,100978.53
2019-05-07T15:36:52.713Z,100977.00
2019-05-07T15:39:22.321Z,100975.59
2019-05-07T15:41:51.858Z,100966.78
2019-05-07T15:44:20.998Z,100974.07
2019-05-07T15:46:51.916Z,100980.48
2019-05-07T15:49:21.654Z,100973.66
2019-05-07T15:51:53.152Z,100978.80
2019-05-07T15:54:22.328Z,100976.05
2019-05-07T15:56:53.290Z,100977.20
2019-05-07T15:59:22.784Z,100971.14
2019-05-07T16:01:53.993Z,100969.49
2019-05-07T16:04:25.793Z,100961.47
2019-05-07T16:06:55.208Z,100968.16
2019-05-07T16:09:24.272Z,100960.45
2019-05-07T16:11:53.355Z,100965.43
2019-05-07T16:14:26.798Z,100961.14
2019-05-07T16:17:02.834Z,100963.42
2019-05-07T16:19:32.220Z,100963.45
2019-05-07T16:22:06.251Z,100964.38
2019-05-07T16:24:35.324Z,100961.31
2019-05-07T16:27:05.219Z,100965.12
2019-05-07T16:29:35.911Z,100963.98
2019-05-07T16:32:05.175Z,100964.34
2019-05-07T16:34:34.221Z,100963.26
2019-05-07T16:37:06.848Z,100957.23
2019-05-07T16:39:34.090Z,100949.86
2019-05-07T16:42:03.166Z,100948.69
2019-05-07T16:44:33.123Z,100946.98
2019-05-07T16:47:02.840Z,100943.58
2019-05-07T16:49:32.037Z,100944.12
2019-05-07T16:52:01.822Z,100943.34
2019-05-07T16:54:31.072Z,100943.38
2019-05-07T16:57:31.818Z,100941.30
2019-05-07T17:00:12.746Z,100935.66
2019-05-07T17:02:45.023Z,100941.17
2019-05-07T17:05:15.044Z,100938.56
2019-05-07T17:08:02.578Z,100935.03
2019-05-07T17:10:31.967Z,100943.55
2019-05-07T17:13:02.872Z,100942.70
2019-05-07T17:15:33.689Z,100939.19
2019-05-07T17:18:03.024Z,100944.55
2019-05-07T17:20:32.705Z,100940.56
2019-05-07T17:23:02.959Z,100941.00
2019-05-07T17:25:38.382Z,100937.89
2019-05-07T17:28:07.851Z,100942.81
2019-05-07T17:30:37.717Z,100939.72
2019-05-07T17:33:07.280Z,100944.67
2019-05-07T17:35:36.333Z,100936.77
2019-05-07T17:38:09.103Z,100945.27
2019-05-07T17:40:36.220Z,100949.28
2019-05-07T17:43:05.298Z,100943.11
2019-05-07T17:45:34.344Z,100947.59
2019-05-07T17:48:03.426Z,100942.73
2019-05-07T17:50:38.646Z,100939.64
2019-05-07T17:53:07.730Z,100940.12
2019-05-07T17:55:36.778Z,100945.52
2019-05-07T17:58:05.843Z,100944.22
2019-05-07T18:00:34.887Z,100933.19
2019-05-07T18:03:32.280Z,100937.20
2019-05-07T18:06:02.376Z,100937.68
2019-05-07T18:08:32.677Z,100934.17
2019-05-07T18:11:02.559Z,100936.42
2019-05-07T18:13:32.526Z,100932.03
2019-05-07T18:16:08.409Z,100934.25
2019-05-07T18:18:37.488Z,100937.84
2019-05-07T18:21:06.542Z,100936.93
2019-05-07T18:23:35.689Z,100936.52
2019-05-07T18:26:04.924Z,100940.52
2019-05-07T18:28:34.027Z,100942.77
2019-05-07T18:31:03.070Z,100942.80
2019-05-07T18:33:38.382Z,100939.24
2019-05-07T18:36:07.437Z,100938.83
2019-05-07T18:38:36.535Z,100938.87
2019-05-07T18:41:05.679Z,100935.77
2019-05-07T18:43:34.817Z,100926.50
2019-05-07T18:46:03.866Z,100933.16
2019-05-07T18:48:32.940Z,100932.75
2019-05-07T18:51:02.720Z,100931.00
2019-05-07T18:53:31.925Z,100933.20
2019-05-07T18:56:01.744Z,100927.92
2019-05-07T18:58:31.935Z,100931.45
2019-05-07T19:01:04.268Z,100939.45
2019-05-07T19:03:33.351Z,100937.70
2019-05-07T19:06:02.891Z,100942.59
2019-05-07T19:08:32.650Z,100940.38
2019-05-07T19:11:05.687Z,100937.27
2019-05-07T19:13:33.562Z,100937.26
2019-05-07T19:16:03.000Z,100944.34
2019-05-07T19:18:32.358Z,100939.48
2019-05-07T19:21:01.328Z,100937.71
2019-05-07T19:23:30.334Z,100934.61
2019-05-07T19:25:59.395Z,100940.81
2019-05-07T19:28:28.467Z,100943.00
2019-05-07T19:30:57.519Z,100951.85
2019-05-07T19:33:27.331Z,100942.99
2019-05-07T19:35:56.518Z,100947.84
2019-05-07T19:38:25.512Z,100946.53
2019-05-07T19:40:54.600Z,100946.48
2019-05-07T19:43:23.649Z,100949.58
2019-05-07T19:45:52.736Z,100947.77
2019-05-07T19:48:23.155Z,100954.42
2019-05-07T19:50:52.806Z,100945.98
2019-05-07T19:53:23.466Z,100935.37
2019-05-07T19:56:08.333Z,100938.89
2019-05-07T19:58:37.410Z,100936.22
2019-05-07T20:01:07.851Z,100938.87
2019-05-07T20:03:36.899Z,100933.99
2019-05-07T20:06:05.973Z,100924.22
2019-05-07T20:08:34.954Z,100932.59
2019-05-07T20:11:12.049Z,100927.30
2019-05-07T20:13:43.625Z,100919.77
2019-05-07T20:16:15.607Z,100916.64
2019-05-07T20:18:44.650Z,100917.53
2019-05-07T20:21:13.727Z,100917.05
2019-05-07T20:23:43.370Z,100919.27
2019-05-07T20:26:12.796Z,100914.39
2019-05-07T20:28:41.975Z,100919.20
2019-05-07T20:31:12.256Z,100920.55
2019-05-07T20:33:42.304Z,100918.31
2019-05-07T20:36:11.567Z,100917.83
2019-05-07T20:38:42.547Z,100917.79
2019-05-07T20:41:12.904Z,100921.77
2019-05-07T20:43:42.863Z,100915.98
2019-05-07T20:46:12.182Z,100917.26
2019-05-07T20:48:42.293Z,100915.03
2019-05-07T20:51:12.519Z,100908.36
2019-05-07T20:53:56.708Z,100904.34
2019-05-07T20:56:28.719Z,100905.67
2019-05-07T20:58:57.767Z,100902.95
2019-05-07T21:01:26.847Z,100906.00
2019-05-07T21:03:55.816Z,100907.30
2019-05-07T21:06:24.889Z,100900.65
2019-05-07T21:08:53.944Z,100904.11
2019-05-07T21:11:23.048Z,100900.54
2019-05-07T21:13:52.479Z,100904.50
2019-05-07T21:16:22.179Z,100896.04
2019-05-07T21:18:52.868Z,100892.94
2019-05-07T21:21:22.034Z,100891.13
2019-05-07T21:23:52.749Z,100894.16
2019-05-07T21:26:22.574Z,100893.20
2019-05-07T21:28:52.828Z,100886.12
2019-05-07T21:31:22.772Z,100893.17
2019-05-07T21:33:52.482Z,100890.48
2019-05-07T21:36:22.837Z,100886.05
2019-05-07T21:38:52.103Z,100887.77
2019-05-07T21:41:22.622Z,100882.45
2019-05-07T21:43:52.848Z,100882.84
2019-05-07T21:46:22.314Z,100875.30
2019-05-07T21:48:53.628Z,100874.39
2019-05-07T21:51:22.960Z,100872.14
2019-05-07T21:54:04.708Z,100874.29
2019-05-07T21:56:54.580Z,100878.68
2019-05-07T21:59:25.177Z,100862.75
2019-05-07T22:02:02.217Z,100869.80
2019-05-07T22:04:31.025Z,100861.39
2019-05-07T22:07:00.013Z,100863.08
2019-05-07T22:09:29.064Z,100852.91
2019-05-07T22:11:58.135Z,100857.74
2019-05-07T22:14:27.195Z,100856.83
2019-05-07T22:16:56.266Z,100854.61
2019-05-07T22:19:25.311Z,100849.30
2019-05-07T22:21:54.378Z,100843.08
2019-05-07T22:24:23.426Z,100835.59
2019-05-07T22:26:52.494Z,100837.34
2019-05-07T22:29:22.737Z,100843.92
2019-05-07T22:32:15.849Z,100836.42
2019-05-07T22:35:02.821Z,100839.48
2019-05-07T22:37:32.518Z,100833.27
2019-05-07T22:40:02.767Z,100833.27
2019-05-07T22:42:32.693Z,100828.43
2019-05-07T22:45:02.842Z,100827.09
2019-05-07T22:47:32.616Z,100820.06
2019-05-07T22:50:02.856Z,100812.99
2019-05-07T22:52:32.644Z,100819.60
2019-05-07T22:55:01.863Z,100817.41
2019-05-07T22:57:37.111Z,100812.08
2019-05-07T23:00:08.440Z,100814.72
2019-05-07T23:02:37.519Z,100812.05
2019-05-07T23:05:06.927Z,100808.09
2019-05-07T23:07:36.008Z,100808.95
2019-05-07T23:10:05.577Z,100805.88
2019-05-07T23:12:34.642Z,100808.52
2019-05-07T23:15:03.798Z,100808.52
2019-05-07T23:17:32.900Z,100800.56
2019-05-07T23:20:01.985Z,100798.75
2019-05-07T23:22:32.431Z,100794.36
2019-05-07T23:25:01.603Z,100786.39
2019-05-07T23:27:32.504Z,100779.77
2019-05-07T23:30:02.615Z,100774.45
2019-05-07T23:32:32.929Z,100780.14
2019-05-07T23:35:02.342Z,100779.22
2019-05-07T23:37:33.110Z,100776.53
2019-05-07T23:40:05.777Z,100772.13
2019-05-07T23:42:36.422Z,100771.21
2019-05-07T23:45:06.178Z,100770.76
2019-05-07T23:47:35.154Z,100776.00
2019-05-07T23:50:04.500Z,100774.61
2019-05-07T23:52:33.463Z,100774.56
2019-05-07T23:55:02.929Z,100767.04
2019-05-07T23:57:32.629Z,100759.11
